sensor_id;sensor_type;location;lat;lon;timestamp;P1;durP1;ratioP1;P2;durP2;ratioP2
32826;SDS011;51059;42.058;27.986;2022-12-19T00:01:02;33.67;;;17.37;;
32826;SDS011;51059;42.058;27.986;2022-12-19T00:03:31;32.23;;;16.33;;
32826;SDS011;51059;42.058;27.986;2022-12-19T00:05:59;34.63;;;18.23;;
32826;SDS011;51059;42.058;27.986;2022-12-19T00:08:26;38.60;;;18.80;;
32826;SDS011;51059;42.058;27.986;2022-12-19T00:10:56;33.57;;;18.30;;
32826;SDS011;51059;42.058;27.986;2022-12-19T00:13:23;32.13;;;18.00;;
32826;SDS011;51059;42.058;27.986;2022-12-19T00:15:49;38.03;;;20.47;;
32826;SDS011;51059;42.058;27.986;2022-12-19T00:18:15;37.17;;;19.10;;
32826;SDS011;51059;42.058;27.986;2022-12-19T00:20:40;34.13;;;17.90;;
32826;SDS011;51059;42.058;27.986;2022-12-19T00:23:06;48.83;;;21.30;;
32826;SDS011;51059;42.058;27.986;2022-12-19T00:25:31;37.93;;;18.23;;
32826;SDS011;51059;42.058;27.986;2022-12-19T00:27:57;41.50;;;19.30;;
32826;SDS011;51059;42.058;27.986;2022-12-19T00:30:23;39.63;;;21.57;;
32826;SDS011;51059;42.058;27.986;2022-12-19T00:32:48;42.30;;;20.20;;
32826;SDS011;51059;42.058;27.986;2022-12-19T00:35:14;42.67;;;20.17;;
32826;SDS011;51059;42.058;27.986;2022-12-19T00:37:40;44.13;;;21.77;;
32826;SDS011;51059;42.058;27.986;2022-12-19T00:40:05;42.93;;;19.70;;
32826;SDS011;51059;42.058;27.986;2022-12-19T00:42:31;40.10;;;21.40;;
32826;SDS011;51059;42.058;27.986;2022-12-19T00:44:57;40.33;;;21.00;;
32826;SDS011;51059;42.058;27.986;2022-12-19T00:47:22;42.50;;;21.60;;
32826;SDS011;51059;42.058;27.986;2022-12-19T00:49:51;43.43;;;22.00;;
32826;SDS011;51059;42.058;27.986;2022-12-19T00:52:16;43.87;;;22.17;;
32826;SDS011;51059;42.058;27.986;2022-12-19T00:54:42;43.17;;;22.10;;
32826;SDS011;51059;42.058;27.986;2022-12-19T00:57:07;41.47;;;20.83;;
32826;SDS011;51059;42.058;27.986;2022-12-19T00:59:33;43.97;;;21.23;;
32826;SDS011;51059;42.058;27.986;2022-12-19T01:01:58;41.73;;;21.37;;
32826;SDS011;51059;42.058;27.986;2022-12-19T01:04:24;38.80;;;19.83;;
32826;SDS011;51059;42.058;27.986;2022-12-19T01:06:50;36.53;;;19.67;;
32826;SDS011;51059;42.058;27.986;2022-12-19T01:09:16;36.03;;;17.83;;
32826;SDS011;51059;42.058;27.986;2022-12-19T01:11:41;36.27;;;17.73;;
32826;SDS011;51059;42.058;27.986;2022-12-19T01:14:25;35.37;;;15.87;;
32826;SDS011;51059;42.058;27.986;2022-12-19T01:16:51;31.57;;;16.87;;
32826;SDS011;51059;42.058;27.986;2022-12-19T01:19:17;31.80;;;15.97;;
32826;SDS011;51059;42.058;27.986;2022-12-19T01:21:43;37.37;;;16.70;;
32826;SDS011;51059;42.058;27.986;2022-12-19T01:24:08;35.57;;;16.83;;
32826;SDS011;51059;42.058;27.986;2022-12-19T01:26:34;33.90;;;16.50;;
32826;SDS011;51059;42.058;27.986;2022-12-19T01:28:59;40.53;;;17.97;;
32826;SDS011;51059;42.058;27.986;2022-12-19T01:31:25;28.27;;;14.97;;
32826;SDS011;51059;42.058;27.986;2022-12-19T01:33:50;31.03;;;17.73;;
32826;SDS011;51059;42.058;27.986;2022-12-19T01:36:16;34.47;;;16.97;;
32826;SDS011;51059;42.058;27.986;2022-12-19T01:38:41;34.07;;;16.37;;
32826;SDS011;51059;42.058;27.986;2022-12-19T01:41:08;28.60;;;15.87;;
32826;SDS011;51059;42.058;27.986;2022-12-19T01:43:53;33.73;;;15.53;;
32826;SDS011;51059;42.058;27.986;2022-12-19T01:46:36;30.73;;;15.43;;
32826;SDS011;51059;42.058;27.986;2022-12-19T01:49:04;33.73;;;16.43;;
32826;SDS011;51059;42.058;27.986;2022-12-19T01:51:40;31.70;;;16.13;;
32826;SDS011;51059;42.058;27.986;2022-12-19T01:54:10;28.93;;;15.67;;
32826;SDS011;51059;42.058;27.986;2022-12-19T01:56:40;26.10;;;14.77;;
32826;SDS011;51059;42.058;27.986;2022-12-19T01:59:09;31.53;;;15.43;;
32826;SDS011;51059;42.058;27.986;2022-12-19T02:01:38;36.40;;;15.83;;
32826;SDS011;51059;42.058;27.986;2022-12-19T02:04:04;32.13;;;14.73;;
32826;SDS011;51059;42.058;27.986;2022-12-19T02:06:31;29.63;;;15.50;;
32826;SDS011;51059;42.058;27.986;2022-12-19T02:08:59;32.40;;;14.10;;
32826;SDS011;51059;42.058;27.986;2022-12-19T02:11:25;34.10;;;13.43;;
32826;SDS011;51059;42.058;27.986;2022-12-19T02:13:50;30.40;;;14.40;;
32826;SDS011;51059;42.058;27.986;2022-12-19T02:30:13;23.20;;;13.63;;
32826;SDS011;51059;42.058;27.986;2022-12-19T02:33:02;32.17;;;13.30;;
32826;SDS011;51059;42.058;27.986;2022-12-19T02:35:44;26.80;;;12.30;;
32826;SDS011;51059;42.058;27.986;2022-12-19T02:43:40;23.53;;;11.80;;
32826;SDS011;51059;42.058;27.986;2022-12-19T02:46:07;22.77;;;11.87;;
32826;SDS011;51059;42.058;27.986;2022-12-19T02:48:33;21.97;;;11.33;;
32826;SDS011;51059;42.058;27.986;2022-12-19T02:50:59;22.50;;;10.67;;
32826;SDS011;51059;42.058;27.986;2022-12-19T02:53:24;23.17;;;9.97;;
32826;SDS011;51059;42.058;27.986;2022-12-19T02:58:53;18.37;;;9.43;;
32826;SDS011;51059;42.058;27.986;2022-12-19T03:07:13;17.27;;;9.67;;
32826;SDS011;51059;42.058;27.986;2022-12-19T03:09:49;20.20;;;9.33;;
32826;SDS011;51059;42.058;27.986;2022-12-19T03:12:22;23.73;;;9.67;;
32826;SDS011;51059;42.058;27.986;2022-12-19T03:14:52;26.73;;;9.63;;
32826;SDS011;51059;42.058;27.986;2022-12-19T03:17:19;25.00;;;10.20;;
32826;SDS011;51059;42.058;27.986;2022-12-19T03:19:44;24.53;;;10.07;;
32826;SDS011;51059;42.058;27.986;2022-12-19T03:22:10;23.40;;;9.47;;
32826;SDS011;51059;42.058;27.986;2022-12-19T03:24:35;22.13;;;10.57;;
32826;SDS011;51059;42.058;27.986;2022-12-19T03:31:55;17.97;;;8.73;;
32826;SDS011;51059;42.058;27.986;2022-12-19T03:34:31;21.80;;;9.27;;
32826;SDS011;51059;42.058;27.986;2022-12-19T03:37:02;22.17;;;10.53;;
32826;SDS011;51059;42.058;27.986;2022-12-19T03:39:29;16.27;;;8.70;;
32826;SDS011;51059;42.058;27.986;2022-12-19T03:41:56;19.63;;;9.20;;
32826;SDS011;51059;42.058;27.986;2022-12-19T03:44:42;19.63;;;9.33;;
32826;SDS011;51059;42.058;27.986;2022-12-19T03:49:43;19.60;;;9.50;;
32826;SDS011;51059;42.058;27.986;2022-12-19T03:54:40;19.13;;;10.23;;
32826;SDS011;51059;42.058;27.986;2022-12-19T03:57:14;23.80;;;9.17;;
32826;SDS011;51059;42.058;27.986;2022-12-19T03:59:44;19.73;;;9.17;;
32826;SDS011;51059;42.058;27.986;2022-12-19T04:02:12;22.00;;;10.13;;
32826;SDS011;51059;42.058;27.986;2022-12-19T04:04:40;24.27;;;9.13;;
32826;SDS011;51059;42.058;27.986;2022-12-19T04:07:09;22.47;;;9.90;;
32826;SDS011;51059;42.058;27.986;2022-12-19T04:09:36;23.97;;;9.47;;
32826;SDS011;51059;42.058;27.986;2022-12-19T04:12:03;19.53;;;8.80;;
32826;SDS011;51059;42.058;27.986;2022-12-19T04:14:35;19.23;;;8.77;;
32826;SDS011;51059;42.058;27.986;2022-12-19T04:17:13;20.10;;;8.20;;
32826;SDS011;51059;42.058;27.986;2022-12-19T04:22:42;22.47;;;8.27;;
32826;SDS011;51059;42.058;27.986;2022-12-19T04:25:18;19.70;;;9.53;;
32826;SDS011;51059;42.058;27.986;2022-12-19T04:27:49;20.73;;;8.27;;
32826;SDS011;51059;42.058;27.986;2022-12-19T04:30:17;20.27;;;8.80;;
32826;SDS011;51059;42.058;27.986;2022-12-19T04:32:43;16.27;;;8.13;;
32826;SDS011;51059;42.058;27.986;2022-12-19T04:35:09;16.40;;;9.10;;
32826;SDS011;51059;42.058;27.986;2022-12-19T04:37:36;18.60;;;8.63;;
32826;SDS011;51059;42.058;27.986;2022-12-19T04:40:01;21.27;;;7.73;;
32826;SDS011;51059;42.058;27.986;2022-12-19T04:42:28;20.77;;;9.17;;
32826;SDS011;51059;42.058;27.986;2022-12-19T04:44:53;18.77;;;8.30;;
32826;SDS011;51059;42.058;27.986;2022-12-19T04:47:19;19.10;;;8.00;;
32826;SDS011;51059;42.058;27.986;2022-12-19T04:49:44;20.13;;;8.73;;
32826;SDS011;51059;42.058;27.986;2022-12-19T04:52:10;16.50;;;8.27;;
32826;SDS011;51059;42.058;27.986;2022-12-19T04:54:35;19.17;;;8.80;;
32826;SDS011;51059;42.058;27.986;2022-12-19T04:57:01;29.77;;;9.50;;
32826;SDS011;51059;42.058;27.986;2022-12-19T04:59:26;17.43;;;8.87;;
32826;SDS011;51059;42.058;27.986;2022-12-19T05:01:52;21.60;;;9.53;;
32826;SDS011;51059;42.058;27.986;2022-12-19T05:04:18;21.90;;;9.27;;
32826;SDS011;51059;42.058;27.986;2022-12-19T05:06:43;18.63;;;9.90;;
32826;SDS011;51059;42.058;27.986;2022-12-19T05:09:09;20.07;;;9.97;;
32826;SDS011;51059;42.058;27.986;2022-12-19T05:11:35;22.03;;;9.87;;
32826;SDS011;51059;42.058;27.986;2022-12-19T05:14:01;22.13;;;9.37;;
32826;SDS011;51059;42.058;27.986;2022-12-19T05:16:26;25.33;;;9.43;;
32826;SDS011;51059;42.058;27.986;2022-12-19T05:18:52;20.07;;;9.13;;
32826;SDS011;51059;42.058;27.986;2022-12-19T05:21:18;16.33;;;8.77;;
32826;SDS011;51059;42.058;27.986;2022-12-19T05:23:45;16.87;;;8.00;;
32826;SDS011;51059;42.058;27.986;2022-12-19T05:26:11;23.70;;;10.57;;
32826;SDS011;51059;42.058;27.986;2022-12-19T05:28:37;18.03;;;9.43;;
32826;SDS011;51059;42.058;27.986;2022-12-19T05:31:07;19.77;;;9.17;;
32826;SDS011;51059;42.058;27.986;2022-12-19T05:33:37;22.80;;;9.23;;
32826;SDS011;51059;42.058;27.986;2022-12-19T05:36:03;19.83;;;8.07;;
32826;SDS011;51059;42.058;27.986;2022-12-19T05:38:30;20.07;;;8.20;;
32826;SDS011;51059;42.058;27.986;2022-12-19T05:40:56;19.63;;;9.37;;
32826;SDS011;51059;42.058;27.986;2022-12-19T05:43:22;22.13;;;9.03;;
32826;SDS011;51059;42.058;27.986;2022-12-19T05:45:47;18.03;;;9.40;;
32826;SDS011;51059;42.058;27.986;2022-12-19T05:48:13;25.43;;;9.90;;
32826;SDS011;51059;42.058;27.986;2022-12-19T05:50:39;22.10;;;9.57;;
32826;SDS011;51059;42.058;27.986;2022-12-19T05:53:05;23.13;;;9.43;;
32826;SDS011;51059;42.058;27.986;2022-12-19T05:55:30;17.27;;;8.93;;
32826;SDS011;51059;42.058;27.986;2022-12-19T05:57:56;25.93;;;9.50;;
32826;SDS011;51059;42.058;27.986;2022-12-19T06:00:21;16.00;;;8.17;;
32826;SDS011;51059;42.058;27.986;2022-12-19T06:02:47;22.03;;;9.00;;
32826;SDS011;51059;42.058;27.986;2022-12-19T06:05:13;18.33;;;8.87;;
32826;SDS011;51059;42.058;27.986;2022-12-19T06:07:38;17.33;;;8.50;;
32826;SDS011;51059;42.058;27.986;2022-12-19T06:10:04;15.57;;;7.90;;
32826;SDS011;51059;42.058;27.986;2022-12-19T06:12:31;22.73;;;9.17;;
32826;SDS011;51059;42.058;27.986;2022-12-19T06:14:56;21.03;;;8.70;;
32826;SDS011;51059;42.058;27.986;2022-12-19T06:17:22;15.40;;;8.10;;
32826;SDS011;51059;42.058;27.986;2022-12-19T06:19:47;22.00;;;9.17;;
32826;SDS011;51059;42.058;27.986;2022-12-19T06:22:13;18.60;;;8.33;;
32826;SDS011;51059;42.058;27.986;2022-12-19T06:24:38;28.50;;;8.60;;
32826;SDS011;51059;42.058;27.986;2022-12-19T06:27:04;21.17;;;8.73;;
32826;SDS011;51059;42.058;27.986;2022-12-19T06:29:30;21.30;;;8.70;;
32826;SDS011;51059;42.058;27.986;2022-12-19T06:31:55;20.50;;;7.73;;
32826;SDS011;51059;42.058;27.986;2022-12-19T06:34:21;19.63;;;8.90;;
32826;SDS011;51059;42.058;27.986;2022-12-19T06:36:46;18.13;;;8.40;;
32826;SDS011;51059;42.058;27.986;2022-12-19T06:39:13;23.17;;;8.93;;
32826;SDS011;51059;42.058;27.986;2022-12-19T06:41:39;13.53;;;8.20;;
32826;SDS011;51059;42.058;27.986;2022-12-19T06:44:24;20.97;;;8.30;;
32826;SDS011;51059;42.058;27.986;2022-12-19T06:46:50;21.83;;;8.87;;
32826;SDS011;51059;42.058;27.986;2022-12-19T06:49:16;17.03;;;8.00;;
32826;SDS011;51059;42.058;27.986;2022-12-19T06:51:42;17.43;;;8.50;;
32826;SDS011;51059;42.058;27.986;2022-12-19T06:54:11;21.57;;;8.77;;
32826;SDS011;51059;42.058;27.986;2022-12-19T06:56:38;17.33;;;8.40;;
32826;SDS011;51059;42.058;27.986;2022-12-19T06:59:04;17.27;;;8.10;;
32826;SDS011;51059;42.058;27.986;2022-12-19T07:04:08;20.93;;;8.53;;
32826;SDS011;51059;42.058;27.986;2022-12-19T07:06:35;18.23;;;8.50;;
32826;SDS011;51059;42.058;27.986;2022-12-19T07:09:00;18.03;;;8.63;;
32826;SDS011;51059;42.058;27.986;2022-12-19T07:11:26;18.93;;;8.63;;
32826;SDS011;51059;42.058;27.986;2022-12-19T07:13:51;20.00;;;9.40;;
32826;SDS011;51059;42.058;27.986;2022-12-19T07:16:17;23.67;;;9.43;;
32826;SDS011;51059;42.058;27.986;2022-12-19T07:18:42;20.33;;;8.57;;
32826;SDS011;51059;42.058;27.986;2022-12-19T07:21:08;22.77;;;9.30;;
32826;SDS011;51059;42.058;27.986;2022-12-19T07:23:35;17.77;;;9.30;;
32826;SDS011;51059;42.058;27.986;2022-12-19T07:26:01;26.10;;;9.33;;
32826;SDS011;51059;42.058;27.986;2022-12-19T07:28:26;23.03;;;8.80;;
32826;SDS011;51059;42.058;27.986;2022-12-19T07:30:52;14.90;;;7.23;;
32826;SDS011;51059;42.058;27.986;2022-12-19T07:33:18;18.93;;;8.90;;
32826;SDS011;51059;42.058;27.986;2022-12-19T07:35:43;21.50;;;9.13;;
32826;SDS011;51059;42.058;27.986;2022-12-19T07:38:09;20.63;;;8.77;;
32826;SDS011;51059;42.058;27.986;2022-12-19T07:40:34;21.87;;;8.93;;
32826;SDS011;51059;42.058;27.986;2022-12-19T07:43:01;18.03;;;9.27;;
32826;SDS011;51059;42.058;27.986;2022-12-19T07:45:28;23.10;;;9.50;;
32826;SDS011;51059;42.058;27.986;2022-12-19T07:47:54;28.40;;;8.70;;
32826;SDS011;51059;42.058;27.986;2022-12-19T07:50:19;16.37;;;8.63;;
32826;SDS011;51059;42.058;27.986;2022-12-19T07:52:45;21.27;;;9.43;;
32826;SDS011;51059;42.058;27.986;2022-12-19T07:55:11;19.83;;;9.80;;
32826;SDS011;51059;42.058;27.986;2022-12-19T07:57:37;24.33;;;8.70;;
32826;SDS011;51059;42.058;27.986;2022-12-19T08:00:03;20.60;;;8.77;;
32826;SDS011;51059;42.058;27.986;2022-12-19T08:02:29;23.17;;;9.77;;
32826;SDS011;51059;42.058;27.986;2022-12-19T08:04:55;27.97;;;9.07;;
32826;SDS011;51059;42.058;27.986;2022-12-19T08:07:20;19.00;;;8.30;;
32826;SDS011;51059;42.058;27.986;2022-12-19T08:09:46;19.87;;;8.27;;
32826;SDS011;51059;42.058;27.986;2022-12-19T08:12:11;19.03;;;8.23;;
32826;SDS011;51059;42.058;27.986;2022-12-19T08:14:37;18.33;;;8.90;;
32826;SDS011;51059;42.058;27.986;2022-12-19T08:17:03;21.00;;;8.93;;
32826;SDS011;51059;42.058;27.986;2022-12-19T08:19:29;17.90;;;8.77;;
32826;SDS011;51059;42.058;27.986;2022-12-19T08:21:54;21.13;;;8.70;;
32826;SDS011;51059;42.058;27.986;2022-12-19T08:24:20;19.67;;;9.67;;
32826;SDS011;51059;42.058;27.986;2022-12-19T08:26:45;21.13;;;8.77;;
32826;SDS011;51059;42.058;27.986;2022-12-19T08:29:11;23.50;;;8.93;;
32826;SDS011;51059;42.058;27.986;2022-12-19T08:31:37;18.10;;;8.67;;
32826;SDS011;51059;42.058;27.986;2022-12-19T08:34:02;17.03;;;9.00;;
32826;SDS011;51059;42.058;27.986;2022-12-19T08:36:28;20.67;;;8.67;;
32826;SDS011;51059;42.058;27.986;2022-12-19T08:38:54;16.33;;;8.07;;
32826;SDS011;51059;42.058;27.986;2022-12-19T08:41:20;25.33;;;12.47;;
32826;SDS011;51059;42.058;27.986;2022-12-19T08:43:49;22.37;;;9.17;;
32826;SDS011;51059;42.058;27.986;2022-12-19T08:46:16;29.00;;;9.10;;
32826;SDS011;51059;42.058;27.986;2022-12-19T08:48:43;24.00;;;9.13;;
32826;SDS011;51059;42.058;27.986;2022-12-19T08:51:09;16.30;;;8.77;;
32826;SDS011;51059;42.058;27.986;2022-12-19T08:53:36;15.93;;;7.90;;
32826;SDS011;51059;42.058;27.986;2022-12-19T08:56:07;20.67;;;7.97;;
32826;SDS011;51059;42.058;27.986;2022-12-19T08:58:35;22.77;;;8.40;;
32826;SDS011;51059;42.058;27.986;2022-12-19T09:01:01;21.30;;;7.93;;
32826;SDS011;51059;42.058;27.986;2022-12-19T09:03:29;19.63;;;7.97;;
32826;SDS011;51059;42.058;27.986;2022-12-19T09:08:24;20.90;;;7.80;;
32826;SDS011;51059;42.058;27.986;2022-12-19T09:10:56;20.70;;;7.67;;
32826;SDS011;51059;42.058;27.986;2022-12-19T09:13:25;15.17;;;7.33;;
32826;SDS011;51059;42.058;27.986;2022-12-19T09:15:59;21.63;;;8.00;;
32826;SDS011;51059;42.058;27.986;2022-12-19T09:18:31;13.03;;;6.70;;
32826;SDS011;51059;42.058;27.986;2022-12-19T09:20:57;18.97;;;8.00;;
32826;SDS011;51059;42.058;27.986;2022-12-19T09:23:24;18.03;;;8.27;;
32826;SDS011;51059;42.058;27.986;2022-12-19T09:25:51;21.57;;;8.47;;
32826;SDS011;51059;42.058;27.986;2022-12-19T09:28:17;20.07;;;8.57;;
32826;SDS011;51059;42.058;27.986;2022-12-19T09:30:43;22.33;;;9.23;;
32826;SDS011;51059;42.058;27.986;2022-12-19T09:33:09;25.77;;;8.80;;
32826;SDS011;51059;42.058;27.986;2022-12-19T09:35:35;25.80;;;9.20;;
32826;SDS011;51059;42.058;27.986;2022-12-19T09:38:01;26.93;;;8.53;;
32826;SDS011;51059;42.058;27.986;2022-12-19T09:40:27;19.37;;;7.93;;
32826;SDS011;51059;42.058;27.986;2022-12-19T09:47:56;15.83;;;7.17;;
32826;SDS011;51059;42.058;27.986;2022-12-19T09:50:43;13.07;;;7.27;;
32826;SDS011;51059;42.058;27.986;2022-12-19T09:53:17;20.13;;;7.93;;
32826;SDS011;51059;42.058;27.986;2022-12-19T09:55:46;19.53;;;7.67;;
32826;SDS011;51059;42.058;27.986;2022-12-19T09:58:12;18.87;;;7.17;;
32826;SDS011;51059;42.058;27.986;2022-12-19T10:01:01;22.60;;;7.50;;
32826;SDS011;51059;42.058;27.986;2022-12-19T10:03:33;14.73;;;7.50;;
32826;SDS011;51059;42.058;27.986;2022-12-19T10:06:16;16.50;;;6.33;;
32826;SDS011;51059;42.058;27.986;2022-12-19T10:08:43;21.53;;;7.07;;
32826;SDS011;51059;42.058;27.986;2022-12-19T10:22:31;12.30;;;5.70;;
32826;SDS011;51059;42.058;27.986;2022-12-19T10:25:16;13.07;;;5.57;;
32826;SDS011;51059;42.058;27.986;2022-12-19T10:27:56;14.70;;;5.93;;
32826;SDS011;51059;42.058;27.986;2022-12-19T10:30:23;13.73;;;6.57;;
32826;SDS011;51059;42.058;27.986;2022-12-19T10:35:45;15.93;;;6.27;;
32826;SDS011;51059;42.058;27.986;2022-12-19T10:38:23;13.33;;;5.77;;
32826;SDS011;51059;42.058;27.986;2022-12-19T10:46:18;12.70;;;5.33;;
32826;SDS011;51059;42.058;27.986;2022-12-19T10:48:47;13.67;;;5.30;;
32826;SDS011;51059;42.058;27.986;2022-12-19T10:51:20;14.67;;;5.33;;
32826;SDS011;51059;42.058;27.986;2022-12-19T10:53:52;12.73;;;4.90;;
32826;SDS011;51059;42.058;27.986;2022-12-19T10:56:23;13.67;;;5.07;;
32826;SDS011;51059;42.058;27.986;2022-12-19T10:58:51;12.60;;;5.03;;
32826;SDS011;51059;42.058;27.986;2022-12-19T11:01:31;17.40;;;6.30;;
32826;SDS011;51059;42.058;27.986;2022-12-19T11:04:20;15.77;;;6.40;;
32826;SDS011;51059;42.058;27.986;2022-12-19T11:09:16;16.23;;;6.43;;
32826;SDS011;51059;42.058;27.986;2022-12-19T11:11:48;11.57;;;5.43;;
32826;SDS011;51059;42.058;27.986;2022-12-19T11:14:22;16.37;;;5.70;;
32826;SDS011;51059;42.058;27.986;2022-12-19T11:16:49;10.80;;;5.63;;
32826;SDS011;51059;42.058;27.986;2022-12-19T11:19:19;10.57;;;5.50;;
32826;SDS011;51059;42.058;27.986;2022-12-19T11:21:46;11.33;;;4.77;;
32826;SDS011;51059;42.058;27.986;2022-12-19T11:24:12;11.20;;;4.80;;
32826;SDS011;51059;42.058;27.986;2022-12-19T11:26:48;12.77;;;5.30;;
32826;SDS011;51059;42.058;27.986;2022-12-19T11:29:16;11.47;;;5.00;;
32826;SDS011;51059;42.058;27.986;2022-12-19T11:31:54;11.27;;;4.27;;
32826;SDS011;51059;42.058;27.986;2022-12-19T11:34:22;12.63;;;5.40;;
32826;SDS011;51059;42.058;27.986;2022-12-19T11:48:15;14.00;;;6.10;;
32826;SDS011;51059;42.058;27.986;2022-12-19T11:53:29;18.57;;;7.93;;
32826;SDS011;51059;42.058;27.986;2022-12-19T11:56:11;16.57;;;9.90;;
32826;SDS011;51059;42.058;27.986;2022-12-19T11:58:39;15.67;;;5.97;;
32826;SDS011;51059;42.058;27.986;2022-12-19T12:06:28;15.50;;;6.67;;
32826;SDS011;51059;42.058;27.986;2022-12-19T12:09:16;13.77;;;7.13;;
32826;SDS011;51059;42.058;27.986;2022-12-19T12:14:27;11.97;;;6.00;;
32826;SDS011;51059;42.058;27.986;2022-12-19T12:25:22;18.60;;;7.30;;
32826;SDS011;51059;42.058;27.986;2022-12-19T12:28:15;15.00;;;6.50;;
32826;SDS011;51059;42.058;27.986;2022-12-19T12:30:59;20.23;;;7.63;;
32826;SDS011;51059;42.058;27.986;2022-12-19T12:36:47;17.03;;;6.67;;
32826;SDS011;51059;42.058;27.986;2022-12-19T12:42:22;17.93;;;7.07;;
32826;SDS011;51059;42.058;27.986;2022-12-19T12:44:59;20.73;;;7.73;;
32826;SDS011;51059;42.058;27.986;2022-12-19T12:47:27;14.10;;;6.80;;
32826;SDS011;51059;42.058;27.986;2022-12-19T12:50:05;18.63;;;7.37;;
32826;SDS011;51059;42.058;27.986;2022-12-19T12:52:37;13.83;;;7.03;;
32826;SDS011;51059;42.058;27.986;2022-12-19T12:55:05;17.10;;;7.70;;
32826;SDS011;51059;42.058;27.986;2022-12-19T12:57:38;13.87;;;6.60;;
32826;SDS011;51059;42.058;27.986;2022-12-19T13:03:10;12.87;;;7.30;;
32826;SDS011;51059;42.058;27.986;2022-12-19T13:05:40;18.87;;;8.13;;
32826;SDS011;51059;42.058;27.986;2022-12-19T13:11:02;15.70;;;7.40;;
32826;SDS011;51059;42.058;27.986;2022-12-19T13:19:27;18.13;;;7.73;;
32826;SDS011;51059;42.058;27.986;2022-12-19T13:30:03;15.00;;;8.07;;
32826;SDS011;51059;42.058;27.986;2022-12-19T13:40:12;12.00;;;6.73;;
32826;SDS011;51059;42.058;27.986;2022-12-19T13:43:14;16.70;;;7.60;;
32826;SDS011;51059;42.058;27.986;2022-12-19T13:48:31;14.90;;;7.70;;
32826;SDS011;51059;42.058;27.986;2022-12-19T13:50:59;19.73;;;7.67;;
32826;SDS011;51059;42.058;27.986;2022-12-19T13:53:29;13.87;;;7.33;;
32826;SDS011;51059;42.058;27.986;2022-12-19T13:55:59;15.97;;;7.73;;
32826;SDS011;51059;42.058;27.986;2022-12-19T13:58:29;17.90;;;7.93;;
32826;SDS011;51059;42.058;27.986;2022-12-19T14:01:00;14.10;;;7.67;;
32826;SDS011;51059;42.058;27.986;2022-12-19T14:03:37;21.60;;;9.90;;
32826;SDS011;51059;42.058;27.986;2022-12-19T14:06:24;18.67;;;9.27;;
32826;SDS011;51059;42.058;27.986;2022-12-19T14:08:51;24.83;;;12.37;;
32826;SDS011;51059;42.058;27.986;2022-12-19T14:11:18;21.27;;;8.40;;
32826;SDS011;51059;42.058;27.986;2022-12-19T14:13:55;14.50;;;7.73;;
32826;SDS011;51059;42.058;27.986;2022-12-19T14:16:40;16.77;;;7.77;;
32826;SDS011;51059;42.058;27.986;2022-12-19T14:19:19;15.43;;;7.73;;
32826;SDS011;51059;42.058;27.986;2022-12-19T14:21:46;18.07;;;8.33;;
32826;SDS011;51059;42.058;27.986;2022-12-19T14:26:46;17.07;;;7.63;;
32826;SDS011;51059;42.058;27.986;2022-12-19T14:29:16;14.37;;;7.17;;
32826;SDS011;51059;42.058;27.986;2022-12-19T14:31:47;16.10;;;8.40;;
32826;SDS011;51059;42.058;27.986;2022-12-19T14:34:23;24.07;;;9.40;;
32826;SDS011;51059;42.058;27.986;2022-12-19T14:36:51;22.67;;;10.57;;
32826;SDS011;51059;42.058;27.986;2022-12-19T14:39:18;16.63;;;7.50;;
32826;SDS011;51059;42.058;27.986;2022-12-19T14:41:48;19.30;;;8.90;;
32826;SDS011;51059;42.058;27.986;2022-12-19T14:44:43;17.77;;;9.70;;
32826;SDS011;51059;42.058;27.986;2022-12-19T14:47:10;17.83;;;8.13;;
32826;SDS011;51059;42.058;27.986;2022-12-19T14:49:48;15.10;;;8.43;;
32826;SDS011;51059;42.058;27.986;2022-12-19T14:57:44;18.27;;;9.03;;
32826;SDS011;51059;42.058;27.986;2022-12-19T15:00:27;17.67;;;7.87;;
32826;SDS011;51059;42.058;27.986;2022-12-19T15:02:54;16.07;;;8.10;;
32826;SDS011;51059;42.058;27.986;2022-12-19T15:05:22;15.43;;;7.57;;
32826;SDS011;51059;42.058;27.986;2022-12-19T15:07:52;12.37;;;7.07;;
32826;SDS011;51059;42.058;27.986;2022-12-19T15:10:29;17.57;;;8.00;;
32826;SDS011;51059;42.058;27.986;2022-12-19T15:12:59;17.77;;;8.20;;
32826;SDS011;51059;42.058;27.986;2022-12-19T15:15:50;21.00;;;8.00;;
32826;SDS011;51059;42.058;27.986;2022-12-19T15:20:58;16.40;;;8.30;;
32826;SDS011;51059;42.058;27.986;2022-12-19T15:23:26;14.50;;;8.77;;
32826;SDS011;51059;42.058;27.986;2022-12-19T15:25:52;18.47;;;9.13;;
32826;SDS011;51059;42.058;27.986;2022-12-19T15:28:20;18.80;;;8.47;;
32826;SDS011;51059;42.058;27.986;2022-12-19T15:30:48;20.53;;;8.40;;
32826;SDS011;51059;42.058;27.986;2022-12-19T15:33:17;17.33;;;8.80;;
32826;SDS011;51059;42.058;27.986;2022-12-19T15:35:42;14.57;;;8.23;;
32826;SDS011;51059;42.058;27.986;2022-12-19T15:38:09;13.73;;;7.47;;
32826;SDS011;51059;42.058;27.986;2022-12-19T15:40:35;18.00;;;7.70;;
32826;SDS011;51059;42.058;27.986;2022-12-19T15:43:01;14.10;;;7.63;;
32826;SDS011;51059;42.058;27.986;2022-12-19T15:45:27;21.20;;;7.90;;
32826;SDS011;51059;42.058;27.986;2022-12-19T15:47:54;18.07;;;8.03;;
32826;SDS011;51059;42.058;27.986;2022-12-19T15:50:21;15.93;;;8.33;;
32826;SDS011;51059;42.058;27.986;2022-12-19T15:52:48;16.63;;;8.80;;
32826;SDS011;51059;42.058;27.986;2022-12-19T15:55:19;16.47;;;7.97;;
32826;SDS011;51059;42.058;27.986;2022-12-19T15:57:50;17.90;;;8.60;;
32826;SDS011;51059;42.058;27.986;2022-12-19T16:00:22;15.07;;;7.90;;
32826;SDS011;51059;42.058;27.986;2022-12-19T16:02:50;17.17;;;8.03;;
32826;SDS011;51059;42.058;27.986;2022-12-19T16:05:17;16.03;;;8.13;;
32826;SDS011;51059;42.058;27.986;2022-12-19T16:07:44;14.17;;;7.73;;
32826;SDS011;51059;42.058;27.986;2022-12-19T16:10:10;15.87;;;7.37;;
32826;SDS011;51059;42.058;27.986;2022-12-19T16:12:37;17.43;;;8.03;;
32826;SDS011;51059;42.058;27.986;2022-12-19T16:15:05;14.43;;;8.00;;
32826;SDS011;51059;42.058;27.986;2022-12-19T16:17:48;13.40;;;7.13;;
32826;SDS011;51059;42.058;27.986;2022-12-19T16:20:15;13.67;;;7.13;;
32826;SDS011;51059;42.058;27.986;2022-12-19T16:22:46;14.50;;;7.57;;
32826;SDS011;51059;42.058;27.986;2022-12-19T16:25:12;17.57;;;6.67;;
32826;SDS011;51059;42.058;27.986;2022-12-19T16:27:38;19.87;;;7.20;;
32826;SDS011;51059;42.058;27.986;2022-12-19T16:30:09;21.23;;;7.97;;
32826;SDS011;51059;42.058;27.986;2022-12-19T16:32:47;17.93;;;8.27;;
32826;SDS011;51059;42.058;27.986;2022-12-19T16:35:17;16.60;;;7.43;;
32826;SDS011;51059;42.058;27.986;2022-12-19T16:37:44;13.50;;;7.57;;
32826;SDS011;51059;42.058;27.986;2022-12-19T16:40:19;15.93;;;8.23;;
32826;SDS011;51059;42.058;27.986;2022-12-19T16:42:47;19.57;;;8.43;;
32826;SDS011;51059;42.058;27.986;2022-12-19T16:45:17;13.80;;;6.90;;
32826;SDS011;51059;42.058;27.986;2022-12-19T16:47:44;16.43;;;7.93;;
32826;SDS011;51059;42.058;27.986;2022-12-19T16:52:44;18.23;;;8.23;;
32826;SDS011;51059;42.058;27.986;2022-12-19T16:55:10;16.50;;;8.37;;
32826;SDS011;51059;42.058;27.986;2022-12-19T16:57:36;18.57;;;7.70;;
32826;SDS011;51059;42.058;27.986;2022-12-19T17:00:02;14.10;;;7.40;;
32826;SDS011;51059;42.058;27.986;2022-12-19T17:05:05;14.00;;;6.13;;